Time;durP1;ratioP1;P1;durP2;ratioP2;P2;SDS_P1;SDS_P2;PMS_P1;PMS_P2;Temp;Humidity;BMP_temperature;BMP_pressure;BME280_temperature;BME280_humidity;BME280_pressure;Samples;Min_cycle;Max_cycle;Signal;HPM_P1;HPM_P2
2023/06/01 00:01:12;;;;;;;9.38;7.25;;;;;;;;;;6299501;28;20110;-80
2023/06/01 00:04:16;;;;;;;9.65;6.65;;;;;;;;;;6302794;28;20320;-81
2023/06/01 00:07:18;;;;;;;10.27;6.90;;;;;;;;;;6299759;28;20206;-81
2023/06/01 00:10:20;;;;;;;9.68;6.82;;;;;;;;;;6299125;28;20229;-80
2023/06/01 00:13:22;;;;;;;14.15;7.35;;;;;;;;;;6303484;28;20044;-81
2023/06/01 00:16:23;;;;;;;11.50;7.13;;;;;;;;;;6301583;28;20252;-80
2023/06/01 00:19:26;;;;;;;10.15;6.78;;;;;;;;;;6300120;28;20048;-81
2023/06/01 00:22:34;;;;;;;12.10;6.43;;;;;;;;;;6300806;28;20270;-81
2023/06/01 00:25:35;;;;;;;9.80;6.70;;;;;;;;;;6297265;28;20062;-79
2023/06/01 00:28:37;;;;;;;12.20;7.20;;;;;;;;;;6302820;28;20055;-79
2023/06/01 00:31:39;;;;;;;12.98;7.72;;;;;;;;;;6295737;28;20102;-82
2023/06/01 00:34:42;;;;;;;10.05;7.15;;;;;;;;;;6297916;28;20267;-81
2023/06/01 00:37:43;;;;;;;12.32;7.90;;;;;;;;;;6297690;28;20118;-80
2023/06/01 00:40:45;;;;;;;11.02;7.60;;;;;;;;;;6303303;28;20272;-80
2023/06/01 00:43:47;;;;;;;10.45;7.47;;;;;;;;;;6301159;28;20396;-81
2023/06/01 00:46:48;;;;;;;11.95;7.40;;;;;;;;;;6297736;28;20109;-79
2023/06/01 00:49:51;;;;;;;13.27;7.70;;;;;;;;;;6300129;28;20545;-82
2023/06/01 00:52:53;;;;;;;10.57;7.68;;;;;;;;;;6297708;28;20267;-80
2023/06/01 00:55:55;;;;;;;12.15;7.88;;;;;;;;;;6302631;28;21067;-79
2023/06/01 00:58:57;;;;;;;14.68;7.97;;;;;;;;;;6299241;28;20052;-81
2023/06/01 01:01:58;;;;;;;9.98;7.03;;;;;;;;;;6300345;28;20451;-80
2023/06/01 01:05:01;;;;;;;11.93;7.78;;;;;;;;;;6297292;28;20060;-80
2023/06/01 01:08:10;;;;;;;10.70;6.95;;;;;;;;;;6296335;28;20063;-80
2023/06/01 01:11:16;;;;;;;9.55;7.53;;;;;;;;;;6297387;28;20076;-80
2023/06/01 01:14:23;;;;;;;10.70;7.38;;;;;;;;;;6300083;28;20060;-80
2023/06/01 01:17:32;;;;;;;10.35;7.32;;;;;;;;;;6302658;28;20045;-80
2023/06/01 01:20:38;;;;;;;11.50;7.32;;;;;;;;;;6295818;28;20036;-80
2023/06/01 01:23:54;;;;;;;11.52;7.50;;;;;;;;;;6297171;28;20094;-80
2023/06/01 01:27:08;;;;;;;10.77;7.55;;;;;;;;;;6292674;28;20387;-80
2023/06/01 01:30:11;;;;;;;;;;;;;;;;;;6298041;28;20137;-80
2023/06/01 01:33:12;;;;;;;11.02;7.20;;;;;;;;;;6299495;28;20143;-80
2023/06/01 01:36:14;;;;;;;10.30;7.43;;;;;;;;;;6296463;28;20157;-80
2023/06/01 01:39:16;;;;;;;9.90;7.72;;;;;;;;;;6298784;28;20076;-78
2023/06/01 01:42:17;;;;;;;13.45;7.38;;;;;;;;;;6301059;28;20044;-81
2023/06/01 01:45:21;;;;;;;13.95;7.60;;;;;;;;;;6299326;28;20052;-81
2023/06/01 01:48:27;;;;;;;11.32;7.20;;;;;;;;;;6295300;28;20049;-80
2023/06/01 01:51:37;;;;;;;13.00;7.93;;;;;;;;;;6295975;28;20405;-80
2023/06/01 01:54:42;;;;;;;10.20;7.35;;;;;;;;;;6299154;28;20055;-81
2023/06/01 01:57:45;;;;;;;10.55;7.50;;;;;;;;;;6303049;28;20085;-79
2023/06/01 02:00:48;;;;;;;13.90;8.02;;;;;;;;;;6301947;28;20052;-80
2023/06/01 02:03:59;;;;;;;15.70;8.15;;;;;;;;;;6302260;28;20057;-80
2023/06/01 02:07:01;;;;;;;11.95;7.95;;;;;;;;;;6300909;28;20056;-80
2023/06/01 02:10:03;;;;;;;12.95;7.70;;;;;;;;;;6302812;28;20067;-81
2023/06/01 02:13:05;;;;;;;10.45;7.13;;;;;;;;;;6302175;28;20059;-79
2023/06/01 02:16:08;;;;;;;10.95;6.43;;;;;;;;;;6303293;28;20048;-80
2023/06/01 02:19:10;;;;;;;12.80;7.53;;;;;;;;;;6300928;28;20056;-80
2023/06/01 02:22:12;;;;;;;15.38;7.03;;;;;;;;;;6305902;28;20048;-83
2023/06/01 02:25:14;;;;;;;10.32;6.82;;;;;;;;;;6301526;28;20102;-81
2023/06/01 02:28:15;;;;;;;10.50;7.10;;;;;;;;;;6301779;28;20059;-82
2023/06/01 02:31:18;;;;;;;12.82;7.53;;;;;;;;;;6303992;28;20045;-83
2023/06/01 02:34:20;;;;;;;13.20;7.07;;;;;;;;;;6303358;28;20229;-82
2023/06/01 02:37:22;;;;;;;10.75;7.65;;;;;;;;;;6300453;28;20072;-82
2023/06/01 02:40:24;;;;;;;12.52;6.97;;;;;;;;;;6303606;28;20043;-81
2023/06/01 02:43:25;;;;;;;11.48;7.45;;;;;;;;;;6303860;28;21373;-81
2023/06/01 02:46:28;;;;;;;12.27;7.03;;;;;;;;;;6300054;28;20052;-81
2023/06/01 02:49:30;;;;;;;12.57;7.13;;;;;;;;;;6301267;28;20048;-81
2023/06/01 02:52:32;;;;;;;10.25;7.80;;;;;;;;;;6303941;28;20063;-80
2023/06/01 02:55:33;;;;;;;12.00;7.28;;;;;;;;;;6302904;28;20125;-81
2023/06/01 02:58:35;;;;;;;10.13;6.32;;;;;;;;;;6299638;28;20345;-81
2023/06/01 03:01:38;;;;;;;9.15;6.72;;;;;;;;;;6301167;28;20393;-79
2023/06/01 03:04:40;;;;;;;11.85;7.47;;;;;;;;;;6300233;28;20060;-79
2023/06/01 03:07:41;;;;;;;10.25;6.28;;;;;;;;;;6297058;28;20329;-80
2023/06/01 03:10:43;;;;;;;9.15;6.28;;;;;;;;;;6303737;28;20242;-79
2023/06/01 03:13:45;;;;;;;13.88;7.00;;;;;;;;;;6301342;28;20063;-81
2023/06/01 03:16:48;;;;;;;8.70;6.63;;;;;;;;;;6305056;28;20052;-80
2023/06/01 03:19:49;;;;;;;10.15;6.88;;;;;;;;;;6300961;28;20469;-80
2023/06/01 03:22:51;;;;;;;9.65;6.57;;;;;;;;;;6303837;28;20044;-80
2023/06/01 03:25:53;;;;;;;9.00;6.13;;;;;;;;;;6301205;28;20094;-79
2023/06/01 03:28:55;;;;;;;10.05;7.00;;;;;;;;;;6301071;28;20046;-81
2023/06/01 03:31:58;;;;;;;9.30;6.72;;;;;;;;;;6300685;28;20250;-80
2023/06/01 03:34:59;;;;;;;12.90;7.05;;;;;;;;;;6298817;28;20051;-81
2023/06/01 03:38:01;;;;;;;10.90;6.40;;;;;;;;;;6300184;28;20070;-81
2023/06/01 03:41:02;;;;;;;7.70;5.93;;;;;;;;;;6301053;28;20044;-81
2023/06/01 03:44:04;;;;;;;14.40;6.13;;;;;;;;;;6299567;28;20048;-79
2023/06/01 03:47:08;;;;;;;9.68;6.28;;;;;;;;;;6298314;28;20354;-80
2023/06/01 03:50:10;;;;;;;8.73;5.82;;;;;;;;;;6297596;28;20044;-81
2023/06/01 03:53:12;;;;;;;11.18;6.32;;;;;;;;;;6303223;28;20056;-78
2023/06/01 03:56:13;;;;;;;11.82;6.30;;;;;;;;;;6297799;28;20048;-80
2023/06/01 03:59:16;;;;;;;11.18;6.07;;;;;;;;;;6298402;28;20122;-79
2023/06/01 04:02:19;;;;;;;10.77;6.45;;;;;;;;;;6301020;28;20333;-79
2023/06/01 04:05:21;;;;;;;13.18;6.15;;;;;;;;;;6298788;28;20052;-78
2023/06/01 04:08:23;;;;;;;9.38;6.25;;;;;;;;;;6299591;28;20048;-79
2023/06/01 04:11:24;;;;;;;10.85;6.20;;;;;;;;;;6300586;28;20045;-80
2023/06/01 04:14:26;;;;;;;8.95;5.80;;;;;;;;;;6306744;28;20040;-81
2023/06/01 04:17:29;;;;;;;9.10;5.88;;;;;;;;;;6305011;28;20113;-80
2023/06/01 04:20:31;;;;;;;8.93;5.82;;;;;;;;;;6304224;28;20036;-80
2023/06/01 04:23:32;;;;;;;7.10;5.40;;;;;;;;;;6306313;28;20052;-80
2023/06/01 04:26:35;;;;;;;8.40;5.95;;;;;;;;;;6307121;28;20059;-80
2023/06/01 04:29:39;;;;;;;10.68;5.93;;;;;;;;;;6299801;28;20064;-79
2023/06/01 04:32:44;;;;;;;10.13;5.55;;;;;;;;;;6300614;28;20071;-83
2023/06/01 04:35:45;;;;;;;6.93;5.30;;;;;;;;;;6298440;28;20125;-80
2023/06/01 04:38:50;;;;;;;10.93;6.15;;;;;;;;;;6298948;28;20040;-79
2023/06/01 04:41:53;;;;;;;7.85;5.40;;;;;;;;;;6299548;28;20052;-81
2023/06/01 04:44:55;;;;;;;10.05;5.63;;;;;;;;;;6298598;28;20056;-80
2023/06/01 04:47:58;;;;;;;9.85;5.85;;;;;;;;;;6299359;28;20109;-80
2023/06/01 04:50:59;;;;;;;9.40;6.43;;;;;;;;;;6300194;28;20239;-80
2023/06/01 04:54:01;;;;;;;7.90;5.40;;;;;;;;;;6300784;28;20105;-80
2023/06/01 04:57:06;;;;;;;9.48;6.20;;;;;;;;;;6297517;28;20269;-83
2023/06/01 05:00:12;;;;;;;9.38;5.82;;;;;;;;;;6297858;28;20114;-81
2023/06/01 05:03:15;;;;;;;7.68;5.60;;;;;;;;;;6294472;28;20048;-81
2023/06/01 05:06:17;;;;;;;8.65;6.10;;;;;;;;;;6299394;28;20102;-82
2023/06/01 05:09:19;;;;;;;9.10;5.68;;;;;;;;;;6299371;28;20236;-81
2023/06/01 05:12:21;;;;;;;11.88;5.75;;;;;;;;;;6298274;28;20050;-82
2023/06/01 05:15:22;;;;;;;8.80;5.32;;;;;;;;;;6298858;28;20280;-82
2023/06/01 05:18:25;;;;;;;8.35;5.10;;;;;;;;;;6297610;28;20367;-80
2023/06/01 05:21:27;;;;;;;7.95;5.05;;;;;;;;;;6297069;28;20056;-82
2023/06/01 05:24:29;;;;;;;9.18;5.68;;;;;;;;;;6297648;28;20064;-81
2023/06/01 05:27:31;;;;;;;10.57;6.40;;;;;;;;;;6294963;28;20075;-81
2023/06/01 05:30:32;;;;;;;13.75;6.03;;;;;;;;;;6299045;28;20236;-80
2023/06/01 05:33:36;;;;;;;11.90;5.72;;;;;;;;;;6299709;28;20182;-85
2023/06/01 05:36:38;;;;;;;8.27;5.47;;;;;;;;;;6301933;28;20129;-84
2023/06/01 05:39:40;;;;;;;9.90;6.00;;;;;;;;;;6303508;28;20060;-83
2023/06/01 05:42:42;;;;;;;10.00;5.38;;;;;;;;;;6302196;28;20256;-84
2023/06/01 05:45:43;;;;;;;7.80;5.20;;;;;;;;;;6302069;28;20055;-84
2023/06/01 05:48:47;;;;;;;8.50;4.93;;;;;;;;;;6301139;28;20082;-84
2023/06/01 05:51:48;;;;;;;;;;;;;;;;;;6304004;28;20386;-86
2023/06/01 05:54:53;;;;;;;10.05;5.45;;;;;;;;;;6306231;28;19916;-84
2023/06/01 05:57:55;;;;;;;9.68;5.28;;;;;;;;;;6303511;28;20103;-83
2023/06/01 06:00:57;;;;;;;9.10;5.28;;;;;;;;;;6302116;28;20974;-83
2023/06/01 06:04:00;;;;;;;10.55;5.88;;;;;;;;;;6303929;28;20084;-86
2023/06/01 06:07:02;;;;;;;8.98;5.30;;;;;;;;;;6302244;28;20117;-86
2023/06/01 06:10:04;;;;;;;9.45;5.22;;;;;;;;;;6304485;28;20067;-86
2023/06/01 06:13:05;;;;;;;10.30;6.28;;;;;;;;;;6300843;28;20060;-83
2023/06/01 06:16:07;;;;;;;9.48;5.38;;;;;;;;;;6300838;28;20325;-85
2023/06/01 06:19:10;;;;;;;9.55;5.78;;;;;;;;;;6302567;28;20048;-84
2023/06/01 06:22:12;;;;;;;15.40;5.95;;;;;;;;;;6299535;28;20052;-84
2023/06/01 06:25:14;;;;;;;8.10;5.47;;;;;;;;;;6300031;28;20067;-84
2023/06/01 06:28:16;;;;;;;9.05;5.50;;;;;;;;;;6298962;28;20135;-84
2023/06/01 06:31:17;;;;;;;11.13;5.50;;;;;;;;;;6303865;28;20052;-84
2023/06/01 06:34:20;;;;;;;10.65;4.95;;;;;;;;;;6299726;28;20102;-87
2023/06/01 06:37:22;;;;;;;9.20;5.38;;;;;;;;;;6302620;28;20086;-85
2023/06/01 06:40:24;;;;;;;9.55;5.97;;;;;;;;;;6303043;28;20044;-84
2023/06/01 06:43:26;;;;;;;10.02;6.55;;;;;;;;;;6301162;28;20056;-84
2023/06/01 06:46:27;;;;;;;8.93;5.82;;;;;;;;;;6296401;28;20052;-86
2023/06/01 06:49:30;;;;;;;7.25;5.70;;;;;;;;;;6296178;28;20268;-84
2023/06/01 06:52:32;;;;;;;12.98;6.55;;;;;;;;;;6301022;28;20043;-84
2023/06/01 06:55:34;;;;;;;8.25;4.72;;;;;;;;;;6298146;28;20534;-82
2023/06/01 06:58:36;;;;;;;14.77;6.00;;;;;;;;;;6297077;28;20056;-82
2023/06/01 07:01:38;;;;;;;7.88;5.25;;;;;;;;;;6298996;28;20053;-83
2023/06/01 07:04:41;;;;;;;10.30;5.93;;;;;;;;;;6298635;28;20146;-83
2023/06/01 07:07:43;;;;;;;9.88;6.05;;;;;;;;;;6299313;28;20052;-81
2023/06/01 07:10:45;;;;;;;10.02;5.28;;;;;;;;;;6301940;28;20106;-82
2023/06/01 07:13:46;;;;;;;11.40;4.88;;;;;;;;;;6298615;28;20056;-84
2023/06/01 07:16:48;;;;;;;10.05;4.22;;;;;;;;;;6302470;28;20329;-85
2023/06/01 07:19:51;;;;;;;6.93;4.53;;;;;;;;;;6298089;28;20052;-84
2023/06/01 07:22:53;;;;;;;8.25;5.05;;;;;;;;;;6301963;28;20355;-82
2023/06/01 07:25:55;;;;;;;8.50;4.70;;;;;;;;;;6294569;28;20056;-84
2023/06/01 07:28:59;;;;;;;6.95;4.57;;;;;;;;;;6293302;28;20385;-84
2023/06/01 07:32:01;;;;;;;10.05;5.35;;;;;;;;;;6299807;28;20057;-85
2023/06/01 07:35:06;;;;;;;8.85;4.28;;;;;;;;;;6295992;28;20340;-82
2023/06/01 07:38:07;;;;;;;10.20;4.60;;;;;;;;;;6296685;28;20101;-75
2023/06/01 07:41:10;;;;;;;6.00;4.47;;;;;;;;;;6295825;28;20052;-77
2023/06/01 07:44:13;;;;;;;6.10;4.18;;;;;;;;;;6296144;28;20060;-77
2023/06/01 07:47:15;;;;;;;9.48;4.65;;;;;;;;;;6294524;28;20061;-77
2023/06/01 07:50:19;;;;;;;9.13;4.70;;;;;;;;;;6297624;28;20059;-78
2023/06/01 07:53:21;;;;;;;6.47;4.32;;;;;;;;;;6297738;28;20123;-77
2023/06/01 07:56:26;;;;;;;51.72;8.27;;;;;;;;;;6297406;28;20205;-79
2023/06/01 07:59:29;;;;;;;7.60;4.55;;;;;;;;;;6296857;28;20056;-79
2023/06/01 08:02:30;;;;;;;7.20;4.90;;;;;;;;;;6302863;28;20314;-78
2023/06/01 08:05:35;;;;;;;6.57;5.10;;;;;;;;;;6297674;28;20055;-77
2023/06/01 08:08:37;;;;;;;7.28;5.82;;;;;;;;;;6300351;28;20052;-79
2023/06/01 08:11:39;;;;;;;8.53;5.13;;;;;;;;;;6298647;28;20049;-77
2023/06/01 08:14:41;;;;;;;6.15;4.82;;;;;;;;;;6296332;28;20076;-80
2023/06/01 08:17:43;;;;;;;8.80;5.13;;;;;;;;;;6303104;28;20143;-79
2023/06/01 08:20:46;;;;;;;9.50;5.13;;;;;;;;;;6298291;28;20082;-80
2023/06/01 08:23:48;;;;;;;7.45;5.07;;;;;;;;;;6297303;28;20332;-78
2023/06/01 08:26:50;;;;;;;9.20;5.28;;;;;;;;;;6298744;28;20344;-79
2023/06/01 08:29:53;;;;;;;8.45;5.50;;;;;;;;;;6295437;28;20064;-79
2023/06/01 08:32:55;;;;;;;6.13;4.95;;;;;;;;;;6295387;28;20052;-78
2023/06/01 08:35:58;;;;;;;5.93;4.90;;;;;;;;;;6300024;28;20051;-76
2023/06/01 08:38:59;;;;;;;;;;;;;;;;;;6300785;28;20051;-83
2023/06/01 08:42:07;;;;;;;6.90;4.50;;;;;;;;;;6297308;28;19916;-88
2023/06/01 08:45:10;;;;;;;7.90;5.30;;;;;;;;;;6296966;28;20091;-78
2023/06/01 08:48:13;;;;;;;;;;;;;;;;;;6297722;28;20102;-89
2023/06/01 08:51:16;;;;;;;8.35;5.22;;;;;;;;;;6297040;28;19962;-81
2023/06/01 08:54:17;;;;;;;;;;;;;;;;;;6298751;28;20052;-81
2023/06/01 08:57:20;;;;;;;7.90;5.05;;;;;;;;;;6298276;28;20143;-82
2023/06/01 09:00:22;;;;;;;9.63;5.32;;;;;;;;;;6296300;28;20049;-79
2023/06/01 09:03:24;;;;;;;8.25;5.63;;;;;;;;;;6298003;28;20241;-78
2023/06/01 09:06:27;;;;;;;8.60;5.20;;;;;;;;;;6295254;28;20068;-83
2023/06/01 09:09:29;;;;;;;7.45;5.43;;;;;;;;;;6300220;28;20341;-83
2023/06/01 09:12:32;;;;;;;8.90;5.82;;;;;;;;;;6294213;28;20425;-83
2023/06/01 09:15:34;;;;;;;8.85;5.93;;;;;;;;;;6298755;28;20104;-81
2023/06/01 09:18:36;;;;;;;11.00;5.22;;;;;;;;;;6295053;28;20055;-82
2023/06/01 09:21:39;;;;;;;9.35;5.22;;;;;;;;;;6297638;28;20051;-81
2023/06/01 09:24:41;;;;;;;12.80;6.07;;;;;;;;;;6297312;28;20048;-80
2023/06/01 09:27:45;;;;;;;9.60;6.20;;;;;;;;;;6293996;28;20057;-79
2023/06/01 09:30:46;;;;;;;8.60;5.63;;;;;;;;;;6294215;28;20044;-83
2023/06/01 09:34:00;;;;;;;12.45;6.50;;;;;;;;;;6293682;28;20059;-77
2023/06/01 09:37:07;;;;;;;11.60;6.22;;;;;;;;;;6296277;28;20055;-85
2023/06/01 09:40:19;;;;;;;11.85;6.60;;;;;;;;;;6296668;28;20052;-85
2023/06/01 09:43:21;;;;;;;9.07;6.38;;;;;;;;;;6296181;28;20060;-87
2023/06/01 09:46:23;;;;;;;6.47;5.43;;;;;;;;;;6292060;28;20052;-96
2023/06/01 09:49:26;;;;;;;9.52;6.70;;;;;;;;;;6303786;28;20047;-92
2023/06/01 09:52:29;;;;;;;10.10;6.28;;;;;;;;;;6296060;28;20040;-90
2023/06/01 09:55:31;;;;;;;9.32;6.40;;;;;;;;;;6301712;28;20324;-96
2023/06/01 09:58:37;;;;;;;9.95;6.55;;;;;;;;;;6306326;28;20048;-96
2023/06/01 10:01:38;;;;;;;6.65;5.90;;;;;;;;;;6302142;28;20048;-90
2023/06/01 10:04:41;;;;;;;8.47;5.77;;;;;;;;;;6296957;28;20075;-83
2023/06/01 10:07:44;;;;;;;;;;;;;;;;;;6293171;28;20102;-80
2023/06/01 10:10:47;;;;;;;8.35;6.72;;;;;;;;;;6298756;28;20223;-85
2023/06/01 10:13:48;;;;;;;12.80;7.80;;;;;;;;;;6294163;28;21838;-86
2023/06/01 10:16:51;;;;;;;9.77;7.03;;;;;;;;;;6301544;28;20094;-82
2023/06/01 10:19:52;;;;;;;;;;;;;;;;;;6302548;28;20060;-92
2023/06/01 10:22:55;;;;;;;8.73;6.25;;;;;;;;;;6298859;28;20038;-91
2023/06/01 10:25:58;;;;;;;9.95;6.15;;;;;;;;;;6302859;28;20055;-83
2023/06/01 10:29:01;;;;;;;9.82;6.97;;;;;;;;;;6300468;28;20064;-91
2023/06/01 10:32:02;;;;;;;9.13;6.32;;;;;;;;;;6305548;28;20332;-88
2023/06/01 10:35:05;;;;;;;9.00;6.47;;;;;;;;;;6303196;28;20052;-88
2023/06/01 10:38:29;;;;;;;11.07;7.32;;;;;;;;;;6301608;28;20052;-85
2023/06/01 10:41:32;;;;;;;10.73;7.30;;;;;;;;;;6302408;28;20055;-91
2023/06/01 10:44:46;;;;;;;10.55;7.88;;;;;;;;;;6304326;28;20060;-89
2023/06/01 10:47:51;;;;;;;11.70;7.45;;;;;;;;;;6301610;28;20052;-88
2023/06/01 10:51:17;;;;;;;14.80;7.70;;;;;;;;;;6300400;28;20588;-84
2023/06/01 10:54:29;;;;;;;9.43;7.40;;;;;;;;;;6300901;28;20060;-83
2023/06/01 10:57:31;;;;;;;12.18;9.25;;;;;;;;;;6300424;28;20080;-83
2023/06/01 11:00:39;;;;;;;10.13;7.40;;;;;;;;;;6298750;28;20059;-77
2023/06/01 11:03:44;;;;;;;11.80;8.40;;;;;;;;;;6300447;28;20056;-85
2023/06/01 11:06:46;;;;;;;11.38;8.27;;;;;;;;;;6302435;28;20063;-85
2023/06/01 11:09:49;;;;;;;13.27;7.80;;;;;;;;;;6300936;28;20418;-80
2023/06/01 11:13:17;;;;;;;12.68;8.32;;;;;;;;;;6304727;28;20045;-85
2023/06/01 11:16:31;;;;;;;9.40;6.90;;;;;;;;;;6305896;28;20049;-81
2023/06/01 11:19:35;;;;;;;10.40;7.18;;;;;;;;;;6301472;28;20057;-84
2023/06/01 11:22:38;;;;;;;10.15;6.70;;;;;;;;;;6308753;28;20115;-80
2023/06/01 11:25:43;;;;;;;9.43;7.38;;;;;;;;;;6302429;28;20052;-82
2023/06/01 11:28:45;;;;;;;8.98;6.93;;;;;;;;;;6299887;28;20064;-89
2023/06/01 11:31:49;;;;;;;10.10;7.18;;;;;;;;;;6308820;28;20124;-79
2023/06/01 11:34:51;;;;;;;9.07;6.75;;;;;;;;;;6302795;28;20053;-89
2023/06/01 11:37:56;;;;;;;11.23;8.15;;;;;;;;;;6302154;28;20056;-87
2023/06/01 11:41:02;;;;;;;11.98;6.63;;;;;;;;;;6305542;28;20572;-88
2023/06/01 11:44:04;;;;;;;7.45;6.53;;;;;;;;;;6307790;28;20064;-88
2023/06/01 11:47:07;;;;;;;11.25;8.05;;;;;;;;;;6305166;28;20052;-85
2023/06/01 11:50:21;;;;;;;9.88;7.45;;;;;;;;;;6304908;28;20044;-86
2023/06/01 11:53:23;;;;;;;9.02;7.00;;;;;;;;;;6305588;28;20094;-86
2023/06/01 11:56:34;;;;;;;10.60;6.25;;;;;;;;;;6301395;28;20098;-82
2023/06/01 11:59:39;;;;;;;10.57;6.75;;;;;;;;;;6304861;28;20074;-87
2023/06/01 12:02:42;;;;;;;8.05;7.25;;;;;;;;;;6299871;28;20244;-86
2023/06/01 12:05:48;;;;;;;7.90;7.00;;;;;;;;;;6303915;28;20044;-86
2023/06/01 12:08:52;;;;;;;8.10;6.38;;;;;;;;;;6303576;28;20064;-84
2023/06/01 12:11:55;;;;;;;12.27;7.43;;;;;;;;;;6306325;28;20356;-85
2023/06/01 12:14:57;;;;;;;10.77;7.75;;;;;;;;;;6308064;28;20052;-85
2023/06/01 12:17:58;;;;;;;11.48;7.53;;;;;;;;;;6307051;28;20053;-85
2023/06/01 12:21:00;;;;;;;7.57;6.70;;;;;;;;;;6305366;28;20044;-85
2023/06/01 12:24:02;;;;;;;9.52;7.18;;;;;;;;;;6305725;28;20221;-84
2023/06/01 12:27:15;;;;;;;10.37;6.97;;;;;;;;;;6304076;28;20064;-86
2023/06/01 12:30:23;;;;;;;14.55;7.53;;;;;;;;;;6300931;28;20393;-86
2023/06/01 12:33:35;;;;;;;11.75;7.38;;;;;;;;;;6301485;28;20356;-86
2023/06/01 12:36:37;;;;;;;13.63;6.80;;;;;;;;;;6301667;28;20057;-86
2023/06/01 12:39:39;;;;;;;8.95;6.78;;;;;;;;;;6307484;28;20060;-85
2023/06/01 12:42:42;;;;;;;14.32;6.28;;;;;;;;;;6309842;28;20052;-85
2023/06/01 12:45:44;;;;;;;8.52;5.75;;;;;;;;;;6302190;28;20056;-84
2023/06/01 12:48:47;;;;;;;7.25;6.28;;;;;;;;;;6296939;28;20123;-83
2023/06/01 12:51:49;;;;;;;8.55;6.25;;;;;;;;;;6294162;28;20052;-84
2023/06/01 12:54:53;;;;;;;10.45;7.18;;;;;;;;;;6299004;28;20110;-80
2023/06/01 12:57:56;;;;;;;9.15;7.72;;;;;;;;;;6300204;28;20099;-78
2023/06/01 13:00:58;;;;;;;9.32;6.10;;;;;;;;;;6300311;28;20297;-79
2023/06/01 13:04:00;;;;;;;8.75;6.45;;;;;;;;;;6299587;28;20372;-80
2023/06/01 13:07:01;;;;;;;9.45;6.57;;;;;;;;;;6298410;28;20082;-79
2023/06/01 13:10:04;;;;;;;11.27;6.43;;;;;;;;;;6299150;28;20124;-79
2023/06/01 13:13:08;;;;;;;9.18;6.30;;;;;;;;;;6296892;28;20052;-79
2023/06/01 13:16:09;;;;;;;8.32;6.05;;;;;;;;;;6299475;28;20056;-81
2023/06/01 13:19:11;;;;;;;10.20;6.57;;;;;;;;;;6296563;28;20051;-79
2023/06/01 13:22:13;;;;;;;9.20;7.57;;;;;;;;;;6299039;28;20150;-78
2023/06/01 13:25:15;;;;;;;;;;;;;;;;;;6300864;28;20120;-78
2023/06/01 13:28:19;;;;;;;8.38;5.88;;;;;;;;;;6301211;28;20204;-79
2023/06/01 13:31:20;;;;;;;8.85;5.72;;;;;;;;;;6296400;28;20154;-78
2023/06/01 13:34:22;;;;;;;13.03;7.27;;;;;;;;;;6298759;28;20056;-79
2023/06/01 13:37:24;;;;;;;11.45;6.55;;;;;;;;;;6299725;28;20333;-78
2023/06/01 13:40:25;;;;;;;9.87;5.97;;;;;;;;;;6299877;28;20221;-79
2023/06/01 13:43:28;;;;;;;7.73;5.70;;;;;;;;;;6296703;28;20482;-78
2023/06/01 13:46:30;;;;;;;9.07;6.28;;;;;;;;;;6298173;28;20482;-79
2023/06/01 13:49:31;;;;;;;13.93;5.90;;;;;;;;;;6296520;28;20340;-79
2023/06/01 13:52:33;;;;;;;8.70;5.60;;;;;;;;;;6300678;28;20063;-78
2023/06/01 13:55:36;;;;;;;9.85;6.65;;;;;;;;;;6303841;28;20652;-77
2023/06/01 13:58:39;;;;;;;10.63;6.10;;;;;;;;;;6304094;28;20307;-79
2023/06/01 14:01:40;;;;;;;8.18;5.95;;;;;;;;;;6301943;28;20061;-78
2023/06/01 14:04:42;;;;;;;8.57;6.45;;;;;;;;;;6304598;28;20991;-80
2023/06/01 14:07:45;;;;;;;7.40;5.85;;;;;;;;;;6302860;28;20303;-80
2023/06/01 14:10:47;;;;;;;7.53;5.68;;;;;;;;;;6305588;28;20097;-81
2023/06/01 14:13:50;;;;;;;11.07;6.55;;;;;;;;;;6302775;28;20332;-80
2023/06/01 14:16:51;;;;;;;9.65;5.30;;;;;;;;;;6302358;28;20133;-80
2023/06/01 14:19:53;;;;;;;15.60;6.77;;;;;;;;;;6300391;28;20067;-80
2023/06/01 14:22:55;;;;;;;8.68;5.65;;;;;;;;;;6300291;28;20064;-82
2023/06/01 14:25:56;;;;;;;8.48;5.68;;;;;;;;;;6303705;28;20409;-81
2023/06/01 14:28:59;;;;;;;7.03;5.70;;;;;;;;;;6303871;28;20573;-80
2023/06/01 14:32:01;;;;;;;6.32;5.00;;;;;;;;;;6306513;28;20057;-80
2023/06/01 14:35:03;;;;;;;6.00;5.30;;;;;;;;;;6303588;28;21115;-80
2023/06/01 14:38:04;;;;;;;9.05;5.90;;;;;;;;;;6303538;28;20094;-81
2023/06/01 14:41:06;;;;;;;8.20;5.75;;;;;;;;;;6300844;28;20097;-80
2023/06/01 14:44:10;;;;;;;7.72;5.28;;;;;;;;;;6300442;28;20267;-81
2023/06/01 14:47:11;;;;;;;13.15;5.85;;;;;;;;;;6299987;28;20071;-80
2023/06/01 14:50:13;;;;;;;11.80;5.80;;;;;;;;;;6300461;28;20071;-80
2023/06/01 14:53:15;;;;;;;7.97;5.78;;;;;;;;;;6302707;28;20086;-80
2023/06/01 14:56:17;;;;;;;7.35;5.07;;;;;;;;;;6301208;28;20056;-80
2023/06/01 14:59:20;;;;;;;9.35;4.97;;;;;;;;;;6300131;28;20056;-79
2023/06/01 15:02:21;;;;;;;7.82;6.10;;;;;;;;;;6301897;28;20059;-81
2023/06/01 15:05:23;;;;;;;7.32;5.60;;;;;;;;;;6299540;28;20041;-80
2023/06/01 15:08:26;;;;;;;7.97;5.90;;;;;;;;;;6299848;28;20044;-80
2023/06/01 15:11:28;;;;;;;9.13;5.38;;;;;;;;;;6302212;28;20063;-78
2023/06/01 15:14:31;;;;;;;9.40;5.73;;;;;;;;;;6301464;28;20132;-80
2023/06/01 15:17:33;;;;;;;8.20;5.53;;;;;;;;;;6303302;28;20055;-80
2023/06/01 15:20:35;;;;;;;6.95;5.50;;;;;;;;;;6299372;28;20040;-80
2023/06/01 15:23:36;;;;;;;11.23;6.40;;;;;;;;;;6299735;28;20060;-80
2023/06/01 15:26:38;;;;;;;6.82;5.97;;;;;;;;;;6300298;28;20070;-80
2023/06/01 15:29:41;;;;;;;7.40;5.63;;;;;;;;;;6300616;28;20108;-81
2023/06/01 15:32:43;;;;;;;7.72;5.47;;;;;;;;;;6299847;28;20052;-80
2023/06/01 15:35:45;;;;;;;9.88;5.93;;;;;;;;;;6298010;28;20267;-80
2023/06/01 15:38:47;;;;;;;14.13;6.65;;;;;;;;;;6300064;28;20237;-79
2023/06/01 15:41:48;;;;;;;8.32;5.93;;;;;;;;;;6302704;28;20048;-78
2023/06/01 15:44:51;;;;;;;8.90;5.97;;;;;;;;;;6299675;28;20052;-79
2023/06/01 15:47:53;;;;;;;;;;;;;;;;;;6297715;28;20056;-79
2023/06/01 15:50:54;;;;;;;8.70;5.80;;;;;;;;;;6300144;28;19916;-80
2023/06/01 15:53:56;;;;;;;10.57;5.68;;;;;;;;;;6298914;28;20336;-79
2023/06/01 15:56:58;;;;;;;9.40;6.13;;;;;;;;;;6299788;28;20105;-79
2023/06/01 16:00:01;;;;;;;13.57;6.07;;;;;;;;;;6302236;28;20071;-79
2023/06/01 16:03:02;;;;;;;;;;;;;;;;;;6300083;28;20070;-79
2023/06/01 16:06:04;;;;;;;12.70;6.20;;;;;;;;;;6297251;28;20197;-79
2023/06/01 16:09:07;;;;;;;6.93;5.57;;;;;;;;;;6303300;28;20112;-79
2023/06/01 16:12:09;;;;;;;6.30;5.53;;;;;;;;;;6298274;28;20056;-79
2023/06/01 16:15:12;;;;;;;12.88;6.40;;;;;;;;;;6302898;28;20144;-79
2023/06/01 16:18:14;;;;;;;;;;;;;;;;;;6302248;28;20098;-79
2023/06/01 16:21:15;;;;;;;6.47;5.03;;;;;;;;;;6300469;28;19916;-79
2023/06/01 16:24:17;;;;;;;11.18;5.82;;;;;;;;;;6299643;28;20055;-80
2023/06/01 16:27:19;;;;;;;11.60;5.53;;;;;;;;;;6299968;28;20060;-80
2023/06/01 16:30:22;;;;;;;10.60;5.78;;;;;;;;;;6300157;28;20045;-81
2023/06/01 16:33:24;;;;;;;11.32;6.10;;;;;;;;;;6299315;28;20682;-80
2023/06/01 16:36:25;;;;;;;7.45;5.78;;;;;;;;;;6299150;28;20056;-80
2023/06/01 16:39:27;;;;;;;10.43;6.55;;;;;;;;;;6300011;28;20529;-80
2023/06/01 16:42:29;;;;;;;7.15;5.90;;;;;;;;;;6298653;28;20056;-80
2023/06/01 16:45:33;;;;;;;11.35;5.88;;;;;;;;;;6300858;28;20048;-80
2023/06/01 16:48:34;;;;;;;;;;;;;;;;;;6288894;28;20052;-80
2023/06/01 16:51:36;;;;;;;8.45;5.72;;;;;;;;;;6295680;28;19942;-80
2023/06/01 16:54:38;;;;;;;9.55;5.05;;;;;;;;;;6298024;28;20291;-80
2023/06/01 16:57:40;;;;;;;7.80;5.40;;;;;;;;;;6299611;28;20256;-80
2023/06/01 17:00:43;;;;;;;6.60;5.45;;;;;;;;;;6299232;28;20052;-79
2023/06/01 17:03:44;;;;;;;;;;;;;;;;;;6299413;28;20082;-80
2023/06/01 17:06:46;;;;;;;8.57;5.45;;;;;;;;;;6300285;28;19925;-80
2023/06/01 17:09:49;;;;;;;7.00;5.20;;;;;;;;;;6300626;28;20282;-81
2023/06/01 17:12:51;;;;;;;9.77;5.80;;;;;;;;;;6300127;28;20336;-79
2023/06/01 17:15:54;;;;;;;8.70;5.25;;;;;;;;;;6299966;28;20172;-80
2023/06/01 17:18:56;;;;;;;6.72;5.50;;;;;;;;;;6298821;28;20134;-80
2023/06/01 17:21:57;;;;;;;7.55;5.57;;;;;;;;;;6301078;28;20056;-79
2023/06/01 17:25:00;;;;;;;9.40;5.50;;;;;;;;;;6300004;28;20048;-79
2023/06/01 17:28:02;;;;;;;7.85;5.20;;;;;;;;;;6302368;28;20370;-80
2023/06/01 17:31:05;;;;;;;7.32;5.05;;;;;;;;;;6304821;28;20076;-79
2023/06/01 17:34:06;;;;;;;9.07;5.53;;;;;;;;;;6300428;28;20059;-79
2023/06/01 17:37:08;;;;;;;10.68;5.00;;;;;;;;;;6301958;28;20047;-81
2023/06/01 17:40:10;;;;;;;9.27;5.70;;;;;;;;;;6304088;28;20098;-83
2023/06/01 17:43:12;;;;;;;9.50;6.23;;;;;;;;;;6302514;28;20123;-82
2023/06/01 17:46:15;;;;;;;5.85;5.25;;;;;;;;;;6303848;28;20327;-79
2023/06/01 17:49:17;;;;;;;9.32;5.32;;;;;;;;;;6302309;28;20111;-79
2023/06/01 17:52:19;;;;;;;11.13;5.55;;;;;;;;;;6303557;28;20370;-78
2023/06/01 17:55:21;;;;;;;7.72;5.30;;;;;;;;;;6301593;28;20060;-79
2023/06/01 17:58:22;;;;;;;7.43;5.35;;;;;;;;;;6300020;28;20052;-78
2023/06/01 18:01:27;;;;;;;8.40;5.53;;;;;;;;;;6309573;28;20048;-79
2023/06/01 18:04:29;;;;;;;7.93;5.13;;;;;;;;;;6310574;28;20053;-79
2023/06/01 18:07:31;;;;;;;8.57;6.00;;;;;;;;;;6307927;28;20045;-76
2023/06/01 18:10:32;;;;;;;6.78;5.35;;;;;;;;;;6305312;28;20044;-78
2023/06/01 18:13:34;;;;;;;9.45;5.75;;;;;;;;;;6313919;28;20332;-78